sensor_id;sensor_type;location;lat;lon;timestamp;temperature;humidity
13462;DHT22;6803;45.264;5.468;2023-01-28T00:01:36;0.40;99.90
13462;DHT22;6803;45.264;5.468;2023-01-28T00:04:07;0.40;99.90
13462;DHT22;6803;45.264;5.468;2023-01-28T00:06:38;0.40;99.90
13462;DHT22;6803;45.264;5.468;2023-01-28T00:09:08;0.30;99.90
13462;DHT22;6803;45.264;5.468;2023-01-28T00:11:39;0.30;99.90
13462;DHT22;6803;45.264;5.468;2023-01-28T00:14:11;0.30;99.90
13462;DHT22;6803;45.264;5.468;2023-01-28T00:16:42;0.30;99.90
13462;DHT22;6803;45.264;5.468;2023-01-28T00:19:13;0.30;99.90
13462;DHT22;6803;45.264;5.468;2023-01-28T00:21:43;0.30;99.90
13462;DHT22;6803;45.264;5.468;2023-01-28T00:24:14;0.40;99.90
13462;DHT22;6803;45.264;5.468;2023-01-28T00:26:45;0.30;99.90
13462;DHT22;6803;45.264;5.468;2023-01-28T00:29:16;0.30;99.90
13462;DHT22;6803;45.264;5.468;2023-01-28T00:31:46;0.30;99.90
13462;DHT22;6803;45.264;5.468;2023-01-28T00:34:17;0.30;99.90
13462;DHT22;6803;45.264;5.468;2023-01-28T00:36:49;0.30;99.90
13462;DHT22;6803;45.264;5.468;2023-01-28T00:39:22;0.30;99.90
13462;DHT22;6803;45.264;5.468;2023-01-28T00:41:54;0.30;99.90
13462;DHT22;6803;45.264;5.468;2023-01-28T00:44:25;0.30;99.90
13462;DHT22;6803;45.264;5.468;2023-01-28T00:46:56;0.30;99.90
13462;DHT22;6803;45.264;5.468;2023-01-28T00:49:26;0.30;99.90
13462;DHT22;6803;45.264;5.468;2023-01-28T00:51:57;0.30;99.90
13462;DHT22;6803;45.264;5.468;2023-01-28T00:54:29;0.30;99.90
13462;DHT22;6803;45.264;5.468;2023-01-28T00:57:00;0.30;99.90
13462;DHT22;6803;45.264;5.468;2023-01-28T00:59:31;0.30;99.90
13462;DHT22;6803;45.264;5.468;2023-01-28T01:02:01;0.30;99.90
13462;DHT22;6803;45.264;5.468;2023-01-28T01:04:34;0.30;99.90
13462;DHT22;6803;45.264;5.468;2023-01-28T01:07:05;0.30;99.90
13462;DHT22;6803;45.264;5.468;2023-01-28T01:09:36;0.30;99.90
13462;DHT22;6803;45.264;5.468;2023-01-28T01:12:07;0.30;99.90
13462;DHT22;6803;45.264;5.468;2023-01-28T01:14:38;0.30;99.90
13462;DHT22;6803;45.264;5.468;2023-01-28T01:17:08;0.30;99.90
13462;DHT22;6803;45.264;5.468;2023-01-28T01:19:39;0.30;99.90
13462;DHT22;6803;45.264;5.468;2023-01-28T01:22:10;0.30;99.90
13462;DHT22;6803;45.264;5.468;2023-01-28T01:24:41;0.20;99.90
13462;DHT22;6803;45.264;5.468;2023-01-28T01:27:12;0.20;99.90
13462;DHT22;6803;45.264;5.468;2023-01-28T01:29:43;0.20;99.90
13462;DHT22;6803;45.264;5.468;2023-01-28T01:32:13;0.20;99.90
13462;DHT22;6803;45.264;5.468;2023-01-28T01:34:45;0.30;99.90
13462;DHT22;6803;45.264;5.468;2023-01-28T01:37:16;0.30;99.90
13462;DHT22;6803;45.264;5.468;2023-01-28T01:39:47;0.30;99.90
13462;DHT22;6803;45.264;5.468;2023-01-28T01:42:18;0.20;99.90
13462;DHT22;6803;45.264;5.468;2023-01-28T01:44:56;0.20;99.90
13462;DHT22;6803;45.264;5.468;2023-01-28T01:47:35;0.20;99.90
13462;DHT22;6803;45.264;5.468;2023-01-28T01:50:11;0.20;99.90
13462;DHT22;6803;45.264;5.468;2023-01-28T01:52:43;0.20;99.90
13462;DHT22;6803;45.264;5.468;2023-01-28T01:55:16;0.20;99.90
13462;DHT22;6803;45.264;5.468;2023-01-28T01:57:48;0.30;99.90
13462;DHT22;6803;45.264;5.468;2023-01-28T02:00:20;0.30;99.90
13462;DHT22;6803;45.264;5.468;2023-01-28T02:02:51;0.20;99.90
13462;DHT22;6803;45.264;5.468;2023-01-28T02:05:23;0.20;99.90
13462;DHT22;6803;45.264;5.468;2023-01-28T02:07:56;0.20;99.90
13462;DHT22;6803;45.264;5.468;2023-01-28T02:10:30;0.20;99.90
13462;DHT22;6803;45.264;5.468;2023-01-28T02:13:01;0.20;99.90
13462;DHT22;6803;45.264;5.468;2023-01-28T02:15:31;0.20;99.90
13462;DHT22;6803;45.264;5.468;2023-01-28T02:18:02;0.20;99.90
13462;DHT22;6803;45.264;5.468;2023-01-28T02:20:37;0.20;99.90
13462;DHT22;6803;45.264;5.468;2023-01-28T02:23:18;0.10;99.90
13462;DHT22;6803;45.264;5.468;2023-01-28T02:26:21;0.10;99.90
13462;DHT22;6803;45.264;5.468;2023-01-28T02:28:55;0.20;99.90
13462;DHT22;6803;45.264;5.468;2023-01-28T02:31:29;0.20;99.90
13462;DHT22;6803;45.264;5.468;2023-01-28T02:34:04;0.20;99.90
13462;DHT22;6803;45.264;5.468;2023-01-28T02:36:39;0.20;99.90
13462;DHT22;6803;45.264;5.468;2023-01-28T02:39:14;0.20;99.90
13462;DHT22;6803;45.264;5.468;2023-01-28T02:41:47;0.20;99.90
13462;DHT22;6803;45.264;5.468;2023-01-28T02:44:37;0.20;99.90
13462;DHT22;6803;45.264;5.468;2023-01-28T02:47:11;0.20;99.90
13462;DHT22;6803;45.264;5.468;2023-01-28T02:50:01;0.20;99.90
13462;DHT22;6803;45.264;5.468;2023-01-28T02:52:46;0.20;99.90
13462;DHT22;6803;45.264;5.468;2023-01-28T02:55:39;0.20;99.90
13462;DHT22;6803;45.264;5.468;2023-01-28T02:58:15;0.20;99.90
13462;DHT22;6803;45.264;5.468;2023-01-28T03:00:49;0.20;99.90
13462;DHT22;6803;45.264;5.468;2023-01-28T03:03:25;0.20;99.90
13462;DHT22;6803;45.264;5.468;2023-01-28T03:05:59;0.20;99.90
13462;DHT22;6803;45.264;5.468;2023-01-28T03:08:38;0.20;99.90
13462;DHT22;6803;45.264;5.468;2023-01-28T03:11:27;0.20;99.90
13462;DHT22;6803;45.264;5.468;2023-01-28T03:14:19;0.20;99.90
13462;DHT22;6803;45.264;5.468;2023-01-28T03:17:11;0.10;99.90
13462;DHT22;6803;45.264;5.468;2023-01-28T03:19:59;0.20;99.90
13462;DHT22;6803;45.264;5.468;2023-01-28T03:22:50;0.20;99.90
13462;DHT22;6803;45.264;5.468;2023-01-28T03:25:41;0.20;99.90
13462;DHT22;6803;45.264;5.468;2023-01-28T03:28:32;0.20;99.90
13462;DHT22;6803;45.264;5.468;2023-01-28T03:31:22;0.20;99.90
13462;DHT22;6803;45.264;5.468;2023-01-28T03:34:12;0.20;99.90
13462;DHT22;6803;45.264;5.468;2023-01-28T03:37:19;0.20;99.90
13462;DHT22;6803;45.264;5.468;2023-01-28T03:39:51;0.10;99.90
13462;DHT22;6803;45.264;5.468;2023-01-28T03:42:22;0.10;99.90
13462;DHT22;6803;45.264;5.468;2023-01-28T03:44:52;0.10;99.90
13462;DHT22;6803;45.264;5.468;2023-01-28T03:47:25;0.20;99.90
13462;DHT22;6803;45.264;5.468;2023-01-28T03:49:57;0.20;99.90
13462;DHT22;6803;45.264;5.468;2023-01-28T03:52:31;0.20;99.90
13462;DHT22;6803;45.264;5.468;2023-01-28T03:55:02;0.20;99.90
13462;DHT22;6803;45.264;5.468;2023-01-28T03:57:35;0.20;99.90
13462;DHT22;6803;45.264;5.468;2023-01-28T04:00:08;0.20;99.90
13462;DHT22;6803;45.264;5.468;2023-01-28T04:02:39;0.20;99.90
13462;DHT22;6803;45.264;5.468;2023-01-28T04:05:10;0.20;99.90
13462;DHT22;6803;45.264;5.468;2023-01-28T04:07:44;0.10;99.90
13462;DHT22;6803;45.264;5.468;2023-01-28T04:10:15;0.10;99.90
13462;DHT22;6803;45.264;5.468;2023-01-28T04:12:46;0.20;99.90
13462;DHT22;6803;45.264;5.468;2023-01-28T04:15:18;0.20;99.90
13462;DHT22;6803;45.264;5.468;2023-01-28T04:17:49;0.20;99.90
13462;DHT22;6803;45.264;5.468;2023-01-28T04:20:19;0.10;99.90
13462;DHT22;6803;45.264;5.468;2023-01-28T04:22:50;0.10;99.90
13462;DHT22;6803;45.264;5.468;2023-01-28T04:25:22;0.10;99.90
13462;DHT22;6803;45.264;5.468;2023-01-28T04:27:52;0.20;99.90
13462;DHT22;6803;45.264;5.468;2023-01-28T04:30:23;0.20;99.90
13462;DHT22;6803;45.264;5.468;2023-01-28T04:32:54;0.20;99.90
13462;DHT22;6803;45.264;5.468;2023-01-28T04:35:25;0.20;99.90
13462;DHT22;6803;45.264;5.468;2023-01-28T04:37:56;0.20;99.90
13462;DHT22;6803;45.264;5.468;2023-01-28T04:40:26;0.20;99.90
13462;DHT22;6803;45.264;5.468;2023-01-28T04:42:58;0.20;99.90
13462;DHT22;6803;45.264;5.468;2023-01-28T04:45:28;0.20;99.90
13462;DHT22;6803;45.264;5.468;2023-01-28T04:48:00;0.20;99.90
13462;DHT22;6803;45.264;5.468;2023-01-28T04:50:30;0.20;99.90
13462;DHT22;6803;45.264;5.468;2023-01-28T04:53:01;0.20;99.90
13462;DHT22;6803;45.264;5.468;2023-01-28T04:55:32;0.20;99.90
13462;DHT22;6803;45.264;5.468;2023-01-28T04:58:03;0.20;99.90
13462;DHT22;6803;45.264;5.468;2023-01-28T05:00:34;0.20;99.90
13462;DHT22;6803;45.264;5.468;2023-01-28T05:03:04;0.20;99.90
13462;DHT22;6803;45.264;5.468;2023-01-28T05:05:35;0.20;99.90
13462;DHT22;6803;45.264;5.468;2023-01-28T05:08:07;0.20;99.90
13462;DHT22;6803;45.264;5.468;2023-01-28T05:10:38;0.20;99.90
13462;DHT22;6803;45.264;5.468;2023-01-28T05:13:09;0.20;99.90
13462;DHT22;6803;45.264;5.468;2023-01-28T05:15:40;0.20;99.90
13462;DHT22;6803;45.264;5.468;2023-01-28T05:18:11;0.10;99.90
13462;DHT22;6803;45.264;5.468;2023-01-28T05:20:41;0.10;99.90
13462;DHT22;6803;45.264;5.468;2023-01-28T05:23:12;0.10;99.90
13462;DHT22;6803;45.264;5.468;2023-01-28T05:25:43;0.10;99.90
13462;DHT22;6803;45.264;5.468;2023-01-28T05:30:50;0.10;99.90
13462;DHT22;6803;45.264;5.468;2023-01-28T05:33:21;0.20;99.90
13462;DHT22;6803;45.264;5.468;2023-01-28T05:35:52;0.20;99.90
13462;DHT22;6803;45.264;5.468;2023-01-28T05:38:23;0.10;99.90
13462;DHT22;6803;45.264;5.468;2023-01-28T05:40:53;0.10;99.90
13462;DHT22;6803;45.264;5.468;2023-01-28T05:43:24;0.10;99.90
13462;DHT22;6803;45.264;5.468;2023-01-28T05:45:55;0.20;99.90
13462;DHT22;6803;45.264;5.468;2023-01-28T05:48:26;0.20;99.90
13462;DHT22;6803;45.264;5.468;2023-01-28T05:50:56;0.10;99.90
13462;DHT22;6803;45.264;5.468;2023-01-28T05:53:28;0.10;99.90
13462;DHT22;6803;45.264;5.468;2023-01-28T05:55:58;0.10;99.90
13462;DHT22;6803;45.264;5.468;2023-01-28T05:58:29;0.10;99.90
13462;DHT22;6803;45.264;5.468;2023-01-28T06:01:00;0.10;99.90
13462;DHT22;6803;45.264;5.468;2023-01-28T06:03:31;0.00;99.90
13462;DHT22;6803;45.264;5.468;2023-01-28T06:06:02;0.10;99.90
13462;DHT22;6803;45.264;5.468;2023-01-28T06:08:32;0.10;99.90
13462;DHT22;6803;45.264;5.468;2023-01-28T06:11:05;0.10;99.90
13462;DHT22;6803;45.264;5.468;2023-01-28T06:13:36;0.10;99.90
13462;DHT22;6803;45.264;5.468;2023-01-28T06:16:07;0.10;99.90
13462;DHT22;6803;45.264;5.468;2023-01-28T06:18:38;0.10;99.90
13462;DHT22;6803;45.264;5.468;2023-01-28T06:21:10;0.20;99.90
13462;DHT22;6803;45.264;5.468;2023-01-28T06:23:41;0.10;99.90
13462;DHT22;6803;45.264;5.468;2023-01-28T06:26:12;0.10;99.90
13462;DHT22;6803;45.264;5.468;2023-01-28T06:28:42;0.10;99.90
13462;DHT22;6803;45.264;5.468;2023-01-28T06:31:14;0.10;99.90
13462;DHT22;6803;45.264;5.468;2023-01-28T06:33:44;0.10;99.90
13462;DHT22;6803;45.264;5.468;2023-01-28T06:36:15;0.00;99.90
13462;DHT22;6803;45.264;5.468;2023-01-28T06:38:46;0.00;99.90
13462;DHT22;6803;45.264;5.468;2023-01-28T06:41:17;0.10;99.90
13462;DHT22;6803;45.264;5.468;2023-01-28T06:43:47;0.10;99.90
13462;DHT22;6803;45.264;5.468;2023-01-28T06:46:18;0.10;99.90
13462;DHT22;6803;45.264;5.468;2023-01-28T06:48:49;0.00;99.90
13462;DHT22;6803;45.264;5.468;2023-01-28T06:51:20;0.00;99.90
13462;DHT22;6803;45.264;5.468;2023-01-28T06:53:51;0.00;99.90
13462;DHT22;6803;45.264;5.468;2023-01-28T06:56:21;0.10;99.90
13462;DHT22;6803;45.264;5.468;2023-01-28T06:58:52;0.10;99.90
13462;DHT22;6803;45.264;5.468;2023-01-28T07:01:23;0.00;99.90
13462;DHT22;6803;45.264;5.468;2023-01-28T07:03:54;0.00;99.90
13462;DHT22;6803;45.264;5.468;2023-01-28T07:06:25;0.10;99.90
13462;DHT22;6803;45.264;5.468;2023-01-28T07:08:56;0.10;99.90
13462;DHT22;6803;45.264;5.468;2023-01-28T07:11:27;0.10;99.90
13462;DHT22;6803;45.264;5.468;2023-01-28T07:13:58;0.10;99.90
13462;DHT22;6803;45.264;5.468;2023-01-28T07:16:30;0.00;99.90
13462;DHT22;6803;45.264;5.468;2023-01-28T07:19:03;0.00;99.90
13462;DHT22;6803;45.264;5.468;2023-01-28T07:21:33;-0.10;99.90
13462;DHT22;6803;45.264;5.468;2023-01-28T07:24:05;-0.10;99.90
13462;DHT22;6803;45.264;5.468;2023-01-28T07:26:36;-0.10;99.90
13462;DHT22;6803;45.264;5.468;2023-01-28T07:29:08;-0.10;99.90
13462;DHT22;6803;45.264;5.468;2023-01-28T07:31:38;0.00;99.90
13462;DHT22;6803;45.264;5.468;2023-01-28T07:34:10;0.00;99.90
13462;DHT22;6803;45.264;5.468;2023-01-28T07:36:41;0.00;99.90
13462;DHT22;6803;45.264;5.468;2023-01-28T07:39:12;0.00;99.90
13462;DHT22;6803;45.264;5.468;2023-01-28T07:41:43;0.00;99.90
13462;DHT22;6803;45.264;5.468;2023-01-28T07:44:13;0.00;99.90
13462;DHT22;6803;45.264;5.468;2023-01-28T07:46:44;0.00;99.90
13462;DHT22;6803;45.264;5.468;2023-01-28T07:49:15;0.00;99.90
13462;DHT22;6803;45.264;5.468;2023-01-28T07:51:46;0.00;99.90
13462;DHT22;6803;45.264;5.468;2023-01-28T07:54:18;0.00;99.90
13462;DHT22;6803;45.264;5.468;2023-01-28T07:56:49;0.00;99.90
13462;DHT22;6803;45.264;5.468;2023-01-28T07:59:19;0.00;99.90
13462;DHT22;6803;45.264;5.468;2023-01-28T08:01:52;0.00;99.90
13462;DHT22;6803;45.264;5.468;2023-01-28T08:04:23;0.00;99.90
13462;DHT22;6803;45.264;5.468;2023-01-28T08:06:54;0.00;99.90
13462;DHT22;6803;45.264;5.468;2023-01-28T08:09:25;0.00;99.90
13462;DHT22;6803;45.264;5.468;2023-01-28T08:11:57;0.00;99.90
13462;DHT22;6803;45.264;5.468;2023-01-28T08:14:28;0.00;99.90
13462;DHT22;6803;45.264;5.468;2023-01-28T08:16:59;0.00;99.90
13462;DHT22;6803;45.264;5.468;2023-01-28T08:19:29;0.00;99.90
13462;DHT22;6803;45.264;5.468;2023-01-28T08:22:00;0.00;99.90
13462;DHT22;6803;45.264;5.468;2023-01-28T08:24:32;0.00;99.90
13462;DHT22;6803;45.264;5.468;2023-01-28T08:27:03;0.00;99.90
13462;DHT22;6803;45.264;5.468;2023-01-28T08:29:34;0.00;99.90
13462;DHT22;6803;45.264;5.468;2023-01-28T08:32:05;0.00;99.90
13462;DHT22;6803;45.264;5.468;2023-01-28T08:34:36;0.00;99.90
13462;DHT22;6803;45.264;5.468;2023-01-28T08:37:07;0.00;99.90
13462;DHT22;6803;45.264;5.468;2023-01-28T08:39:38;0.00;99.90
13462;DHT22;6803;45.264;5.468;2023-01-28T08:42:09;0.00;99.90
13462;DHT22;6803;45.264;5.468;2023-01-28T08:44:40;0.00;99.90
13462;DHT22;6803;45.264;5.468;2023-01-28T08:47:11;0.00;99.90
13462;DHT22;6803;45.264;5.468;2023-01-28T08:49:41;0.00;99.90
13462;DHT22;6803;45.264;5.468;2023-01-28T08:52:12;0.00;99.90
13462;DHT22;6803;45.264;5.468;2023-01-28T08:54:43;0.10;99.90
13462;DHT22;6803;45.264;5.468;2023-01-28T08:57:14;0.00;99.90
13462;DHT22;6803;45.264;5.468;2023-01-28T08:59:44;0.10;99.90
13462;DHT22;6803;45.264;5.468;2023-01-28T09:02:16;0.10;99.90
13462;DHT22;6803;45.264;5.468;2023-01-28T09:04:48;0.10;99.90
13462;DHT22;6803;45.264;5.468;2023-01-28T09:07:19;0.10;99.90
13462;DHT22;6803;45.264;5.468;2023-01-28T09:09:50;0.00;99.90
13462;DHT22;6803;45.264;5.468;2023-01-28T09:12:21;0.10;99.90
13462;DHT22;6803;45.264;5.468;2023-01-28T09:14:52;0.10;99.90
13462;DHT22;6803;45.264;5.468;2023-01-28T09:17:22;0.10;99.90
13462;DHT22;6803;45.264;5.468;2023-01-28T09:19:53;0.20;99.90
13462;DHT22;6803;45.264;5.468;2023-01-28T09:22:24;0.10;99.90
13462;DHT22;6803;45.264;5.468;2023-01-28T09:24:55;0.10;99.90
13462;DHT22;6803;45.264;5.468;2023-01-28T09:27:26;0.20;99.90
13462;DHT22;6803;45.264;5.468;2023-01-28T09:29:56;0.30;99.90
13462;DHT22;6803;45.264;5.468;2023-01-28T09:32:27;0.30;99.90
13462;DHT22;6803;45.264;5.468;2023-01-28T09:34:59;0.20;99.90
13462;DHT22;6803;45.264;5.468;2023-01-28T09:37:30;0.00;99.90
13462;DHT22;6803;45.264;5.468;2023-01-28T09:40:01;-0.10;99.90
13462;DHT22;6803;45.264;5.468;2023-01-28T09:42:49;0.00;99.90
13462;DHT22;6803;45.264;5.468;2023-01-28T09:48:02;0.00;99.90
13462;DHT22;6803;45.264;5.468;2023-01-28T09:50:35;0.00;99.90
13462;DHT22;6803;45.264;5.468;2023-01-28T09:53:10;0.10;99.90
13462;DHT22;6803;45.264;5.468;2023-01-28T09:55:44;0.10;99.90
13462;DHT22;6803;45.264;5.468;2023-01-28T09:58:16;0.20;99.90
13462;DHT22;6803;45.264;5.468;2023-01-28T10:00:51;0.20;99.90
13462;DHT22;6803;45.264;5.468;2023-01-28T10:03:36;0.30;99.90
13462;DHT22;6803;45.264;5.468;2023-01-28T10:06:15;0.20;99.90
13462;DHT22;6803;45.264;5.468;2023-01-28T10:09:15;0.20;99.90
13462;DHT22;6803;45.264;5.468;2023-01-28T10:11:59;0.20;99.90
13462;DHT22;6803;45.264;5.468;2023-01-28T10:14:41;0.20;99.90
13462;DHT22;6803;45.264;5.468;2023-01-28T10:17:15;0.10;99.90
13462;DHT22;6803;45.264;5.468;2023-01-28T10:19:49;0.10;99.90
13462;DHT22;6803;45.264;5.468;2023-01-28T10:22:23;0.20;99.90
13462;DHT22;6803;45.264;5.468;2023-01-28T10:24:58;0.20;99.90
13462;DHT22;6803;45.264;5.468;2023-01-28T10:27:31;0.20;99.90
13462;DHT22;6803;45.264;5.468;2023-01-28T10:30:15;0.20;99.90
13462;DHT22;6803;45.264;5.468;2023-01-28T10:32:51;0.20;99.90
13462;DHT22;6803;45.264;5.468;2023-01-28T10:35:22;0.10;99.90
13462;DHT22;6803;45.264;5.468;2023-01-28T10:37:58;0.20;99.90
13462;DHT22;6803;45.264;5.468;2023-01-28T10:40:32;0.10;99.90
13462;DHT22;6803;45.264;5.468;2023-01-28T10:43:03;0.10;99.90
13462;DHT22;6803;45.264;5.468;2023-01-28T10:45:39;0.10;99.90
13462;DHT22;6803;45.264;5.468;2023-01-28T10:48:13;0.10;99.90
13462;DHT22;6803;45.264;5.468;2023-01-28T10:50:52;0.10;99.90
13462;DHT22;6803;45.264;5.468;2023-01-28T10:53:35;0.10;99.90
13462;DHT22;6803;45.264;5.468;2023-01-28T10:56:09;0.20;99.90
13462;DHT22;6803;45.264;5.468;2023-01-28T10:58:52;0.10;99.90
13462;DHT22;6803;45.264;5.468;2023-01-28T11:01:22;0.20;99.90
13462;DHT22;6803;45.264;5.468;2023-01-28T11:03:55;0.20;99.90
13462;DHT22;6803;45.264;5.468;2023-01-28T11:06:30;0.30;99.90
13462;DHT22;6803;45.264;5.468;2023-01-28T11:09:01;0.40;99.90
13462;DHT22;6803;45.264;5.468;2023-01-28T11:11:32;0.40;99.90
13462;DHT22;6803;45.264;5.468;2023-01-28T11:14:03;0.50;99.90
13462;DHT22;6803;45.264;5.468;2023-01-28T11:16:34;0.50;99.90
13462;DHT22;6803;45.264;5.468;2023-01-28T11:19:05;0.50;99.90
13462;DHT22;6803;45.264;5.468;2023-01-28T11:24:17;0.50;99.90
13462;DHT22;6803;45.264;5.468;2023-01-28T11:26:51;0.60;99.90
13462;DHT22;6803;45.264;5.468;2023-01-28T11:29:26;0.50;99.90
13462;DHT22;6803;45.264;5.468;2023-01-28T11:31:59;0.60;99.90
13462;DHT22;6803;45.264;5.468;2023-01-28T11:37:14;0.50;99.90
13462;DHT22;6803;45.264;5.468;2023-01-28T11:39:45;0.60;99.90
13462;DHT22;6803;45.264;5.468;2023-01-28T11:42:18;0.60;99.90
13462;DHT22;6803;45.264;5.468;2023-01-28T11:44:49;0.60;99.90
13462;DHT22;6803;45.264;5.468;2023-01-28T11:47:32;0.60;99.90
13462;DHT22;6803;45.264;5.468;2023-01-28T11:50:27;0.60;99.90
13462;DHT22;6803;45.264;5.468;2023-01-28T11:53:15;0.70;99.90
13462;DHT22;6803;45.264;5.468;2023-01-28T11:55:54;0.70;99.90
13462;DHT22;6803;45.264;5.468;2023-01-28T11:58:30;0.70;99.90
13462;DHT22;6803;45.264;5.468;2023-01-28T12:01:05;0.70;99.90
13462;DHT22;6803;45.264;5.468;2023-01-28T12:07:13;0.80;99.90
13462;DHT22;6803;45.264;5.468;2023-01-28T12:09:49;0.70;99.90
13462;DHT22;6803;45.264;5.468;2023-01-28T12:12:30;0.60;99.90
13462;DHT22;6803;45.264;5.468;2023-01-28T12:15:18;0.60;99.90
13462;DHT22;6803;45.264;5.468;2023-01-28T12:17:57;0.60;99.90
13462;DHT22;6803;45.264;5.468;2023-01-28T12:20:30;0.60;99.90
13462;DHT22;6803;45.264;5.468;2023-01-28T12:23:17;0.70;99.90
13462;DHT22;6803;45.264;5.468;2023-01-28T12:26:01;0.70;99.90
13462;DHT22;6803;45.264;5.468;2023-01-28T12:28:40;0.70;99.90
13462;DHT22;6803;45.264;5.468;2023-01-28T12:31:34;0.60;99.90
13462;DHT22;6803;45.264;5.468;2023-01-28T12:34:20;0.70;99.90
13462;DHT22;6803;45.264;5.468;2023-01-28T12:39:38;0.50;99.90
13462;DHT22;6803;45.264;5.468;2023-01-28T12:42:12;0.70;99.90
13462;DHT22;6803;45.264;5.468;2023-01-28T12:44:45;0.70;99.90
13462;DHT22;6803;45.264;5.468;2023-01-28T12:47:20;0.70;99.90
13462;DHT22;6803;45.264;5.468;2023-01-28T12:49:54;0.80;99.90
13462;DHT22;6803;45.264;5.468;2023-01-28T12:52:29;0.70;99.90
13462;DHT22;6803;45.264;5.468;2023-01-28T12:55:03;0.70;99.90
13462;DHT22;6803;45.264;5.468;2023-01-28T12:57:36;0.70;99.90
13462;DHT22;6803;45.264;5.468;2023-01-28T13:00:14;0.70;99.90
13462;DHT22;6803;45.264;5.468;2023-01-28T13:02:50;0.70;99.90
13462;DHT22;6803;45.264;5.468;2023-01-28T13:05:24;0.80;99.90
13462;DHT22;6803;45.264;5.468;2023-01-28T13:07:58;0.80;99.90
13462;DHT22;6803;45.264;5.468;2023-01-28T13:10:33;0.90;99.90
13462;DHT22;6803;45.264;5.468;2023-01-28T13:13:05;0.90;99.90
13462;DHT22;6803;45.264;5.468;2023-01-28T13:21:33;0.90;99.90
13462;DHT22;6803;45.264;5.468;2023-01-28T13:24:19;1.00;99.90
13462;DHT22;6803;45.264;5.468;2023-01-28T13:26:54;1.10;99.90
13462;DHT22;6803;45.264;5.468;2023-01-28T13:29:33;1.10;99.90
13462;DHT22;6803;45.264;5.468;2023-01-28T13:32:26;1.20;99.90
13462;DHT22;6803;45.264;5.468;2023-01-28T13:35:01;1.20;99.90
13462;DHT22;6803;45.264;5.468;2023-01-28T13:37:35;1.20;99.90
13462;DHT22;6803;45.264;5.468;2023-01-28T13:40:22;1.20;99.90
13462;DHT22;6803;45.264;5.468;2023-01-28T13:43:02;1.10;99.90
13462;DHT22;6803;45.264;5.468;2023-01-28T13:45:34;1.20;99.90
13462;DHT22;6803;45.264;5.468;2023-01-28T13:48:19;1.20;99.90
13462;DHT22;6803;45.264;5.468;2023-01-28T13:53:38;1.30;99.90
13462;DHT22;6803;45.264;5.468;2023-01-28T13:56:16;1.20;99.90
13462;DHT22;6803;45.264;5.468;2023-01-28T13:59:11;1.10;99.90
13462;DHT22;6803;45.264;5.468;2023-01-28T14:05:27;1.10;99.90
13462;DHT22;6803;45.264;5.468;2023-01-28T14:11:18;1.10;99.90
13462;DHT22;6803;45.264;5.468;2023-01-28T14:17:15;1.00;99.90
13462;DHT22;6803;45.264;5.468;2023-01-28T14:22:27;1.10;99.90
13462;DHT22;6803;45.264;5.468;2023-01-28T14:25:00;1.00;99.90
13462;DHT22;6803;45.264;5.468;2023-01-28T14:27:35;1.00;99.90
13462;DHT22;6803;45.264;5.468;2023-01-28T14:30:13;1.00;99.90
13462;DHT22;6803;45.264;5.468;2023-01-28T14:32:46;0.90;99.90
13462;DHT22;6803;45.264;5.468;2023-01-28T14:35:21;0.90;99.90
13462;DHT22;6803;45.264;5.468;2023-01-28T14:37:52;1.00;99.90
13462;DHT22;6803;45.264;5.468;2023-01-28T14:40:25;1.00;99.90
13462;DHT22;6803;45.264;5.468;2023-01-28T14:42:58;1.00;99.90
13462;DHT22;6803;45.264;5.468;2023-01-28T14:45:40;1.00;99.90
13462;DHT22;6803;45.264;5.468;2023-01-28T14:48:19;0.90;99.90
13462;DHT22;6803;45.264;5.468;2023-01-28T14:51:03;1.00;99.90
13462;DHT22;6803;45.264;5.468;2023-01-28T14:53:57;0.90;99.90
13462;DHT22;6803;45.264;5.468;2023-01-28T14:56:35;0.90;99.90
13462;DHT22;6803;45.264;5.468;2023-01-28T14:59:12;0.90;99.90
13462;DHT22;6803;45.264;5.468;2023-01-28T15:01:45;0.90;99.90
13462;DHT22;6803;45.264;5.468;2023-01-28T15:04:25;0.90;99.90
13462;DHT22;6803;45.264;5.468;2023-01-28T15:06:59;0.80;99.90
13462;DHT22;6803;45.264;5.468;2023-01-28T15:09:29;0.90;99.90
13462;DHT22;6803;45.264;5.468;2023-01-28T15:12:00;0.90;99.90
13462;DHT22;6803;45.264;5.468;2023-01-28T15:14:32;0.90;99.90
13462;DHT22;6803;45.264;5.468;2023-01-28T15:17:03;0.90;99.90
13462;DHT22;6803;45.264;5.468;2023-01-28T15:19:36;0.90;99.90
13462;DHT22;6803;45.264;5.468;2023-01-28T15:22:08;0.90;99.90
13462;DHT22;6803;45.264;5.468;2023-01-28T15:27:20;0.80;99.90
13462;DHT22;6803;45.264;5.468;2023-01-28T15:29:55;0.80;99.90
13462;DHT22;6803;45.264;5.468;2023-01-28T15:32:28;0.80;99.90
13462;DHT22;6803;45.264;5.468;2023-01-28T15:35:01;0.90;99.90
13462;DHT22;6803;45.264;5.468;2023-01-28T15:37:33;0.90;99.90
13462;DHT22;6803;45.264;5.468;2023-01-28T15:40:16;0.90;99.90
13462;DHT22;6803;45.264;5.468;2023-01-28T15:42:39;0.90;99.90
13462;DHT22;6803;45.264;5.468;2023-01-28T15:45:17;0.90;99.90
13462;DHT22;6803;45.264;5.468;2023-01-28T15:47:50;0.80;99.90
13462;DHT22;6803;45.264;5.468;2023-01-28T15:50:24;0.80;99.90
13462;DHT22;6803;45.264;5.468;2023-01-28T15:52:55;0.80;99.90
13462;DHT22;6803;45.264;5.468;2023-01-28T15:55:36;0.80;99.90
13462;DHT22;6803;45.264;5.468;2023-01-28T15:58:25;0.80;99.90
13462;DHT22;6803;45.264;5.468;2023-01-28T16:01:12;0.80;99.90
13462;DHT22;6803;45.264;5.468;2023-01-28T16:03:46;0.70;99.90
13462;DHT22;6803;45.264;5.468;2023-01-28T16:06:20;0.80;99.90
13462;DHT22;6803;45.264;5.468;2023-01-28T16:08:54;0.90;99.90
13462;DHT22;6803;45.264;5.468;2023-01-28T16:11:29;0.90;99.90
13462;DHT22;6803;45.264;5.468;2023-01-28T16:14:01;0.90;99.90
13462;DHT22;6803;45.264;5.468;2023-01-28T16:16:36;0.90;99.90
13462;DHT22;6803;45.264;5.468;2023-01-28T16:19:14;0.80;99.90
13462;DHT22;6803;45.264;5.468;2023-01-28T16:21:45;0.90;99.90
13462;DHT22;6803;45.264;5.468;2023-01-28T16:24:23;0.80;99.90
13462;DHT22;6803;45.264;5.468;2023-01-28T16:26:58;0.70;99.90
13462;DHT22;6803;45.264;5.468;2023-01-28T16:29:31;0.60;99.90
13462;DHT22;6803;45.264;5.468;2023-01-28T16:32:02;0.70;99.90
13462;DHT22;6803;45.264;5.468;2023-01-28T16:34:33;0.60;99.90
13462;DHT22;6803;45.264;5.468;2023-01-28T16:37:09;0.70;99.90
13462;DHT22;6803;45.264;5.468;2023-01-28T16:42:18;0.70;99.90
13462;DHT22;6803;45.264;5.468;2023-01-28T16:44:51;0.70;99.90
13462;DHT22;6803;45.264;5.468;2023-01-28T16:47:24;0.70;99.90
13462;DHT22;6803;45.264;5.468;2023-01-28T16:49:57;0.70;99.90
13462;DHT22;6803;45.264;5.468;2023-01-28T16:52:28;0.60;99.90
13462;DHT22;6803;45.264;5.468;2023-01-28T16:54:59;0.60;99.90
13462;DHT22;6803;45.264;5.468;2023-01-28T16:57:32;0.60;99.90
13462;DHT22;6803;45.264;5.468;2023-01-28T17:00:07;0.70;99.90
13462;DHT22;6803;45.264;5.468;2023-01-28T17:02:39;0.60;99.90
13462;DHT22;6803;45.264;5.468;2023-01-28T17:05:10;0.60;99.90
13462;DHT22;6803;45.264;5.468;2023-01-28T17:07:43;0.60;99.90
13462;DHT22;6803;45.264;5.468;2023-01-28T17:10:17;0.60;99.90
13462;DHT22;6803;45.264;5.468;2023-01-28T17:12:48;0.50;99.90
13462;DHT22;6803;45.264;5.468;2023-01-28T17:15:19;0.40;99.90
13462;DHT22;6803;45.264;5.468;2023-01-28T17:17:51;0.50;99.90
13462;DHT22;6803;45.264;5.468;2023-01-28T17:20:22;0.40;99.90
13462;DHT22;6803;45.264;5.468;2023-01-28T17:22:53;0.40;99.90
13462;DHT22;6803;45.264;5.468;2023-01-28T17:25:24;0.40;99.90
13462;DHT22;6803;45.264;5.468;2023-01-28T17:27:55;0.40;99.90
13462;DHT22;6803;45.264;5.468;2023-01-28T17:30:26;0.40;99.90